This is the latest recevied weather packets stored in our database for station/object HI6LT. If no packets are shown the sender has not sent any weather packets the latest 10 day(s).
| Time | Temp. | Humidity | Pressure | Rain* | Wind** | Luminosity | Snow |
|---|---|---|---|---|---|---|---|
| 1777444378 | 14.44° C | 97% | 1034 hPa | 0 mm | - | - | - |
| 1777443445 | 13.89° C | 97% | 1034.5 hPa | 0 mm | - | - | - |
| 1777443098 | 13.89° C | 98% | 1034.1 hPa | 0 mm | - | - | - |
| 1777441676 | 13.89° C | 97% | 1034 hPa | 0 mm | - | - | - |
| 1777441305 | 13.89° C | 97% | 1034.1 hPa | 0 mm | - | - | - |
| 1777440658 | 14.44° C | 96% | 1035.8 hPa | 0 mm | - | - | - |
| 1777439503 | 13.89° C | 97% | 1034.5 hPa | 0 mm | - | - | - |
| 1777439026 | 14.44° C | 96% | 1035.9 hPa | 0 mm | - | - | - |
| 1777438972 | 13.89° C | 97% | 1034.7 hPa | 0 mm | - | - | - |
| 1777437702 | 13.89° C | 96% | 1034.9 hPa | 0 mm | - | - | - |
| 1777436272 | 14.44° C | 97% | 1035.4 hPa | 0 mm | - | - | - |
| 1777435902 | 14.44° C | 97% | 1035.6 hPa | 0 mm | - | - | - |
| 1777435182 | 15° C | 94% | 1035.2 hPa | 0 mm | - | - | - |
| 1777434100 | 14.44° C | 96% | 1035.8 hPa | 0 mm | - | - | - |
| 1777433580 | 14.44° C | 96% | 1035.8 hPa | 0 mm | - | - | - |
| 1777432428 | 15.56° C | 91% | 1035.7 hPa | 0 mm | - | - | - |
| 1777432299 | 14.44° C | 96% | 1035.9 hPa | 0 mm | - | - | - |
| 1777430878 | 15° C | 93% | 1035.4 hPa | 0 mm | - | - | - |
| 1777430498 | 15° C | 94% | 1035.2 hPa | 0 mm | - | - | - |
| 1777430445 | 15.56° C | 90% | 1035.8 hPa | 0 mm | - | - | - |
| 1777428697 | 15.56° C | 91% | 1035.7 hPa | 0 mm | - | - | - |
| 1777428175 | 15.56° C | 91% | 1035.9 hPa | 0 mm | - | - | - |
| 1777427449 | 15.56° C | 98% | 1035.3 hPa | 0 mm | - | - | - |
| 1777426904 | 15.56° C | 90% | 1035.8 hPa | 0 mm | - | - | - |
| 1777425827 | 15.56° C | 98% | 1035.1 hPa | 0 mm | - | - | - |
* Rain latest hour (hover to see other rain measurements)
** Current wind speed in m/s (hover to see current wind gust speed)